Time;durP1;ratioP1;P1;durP2;ratioP2;P2;SDS_P1;SDS_P2;PMS_P1;PMS_P2;Temp;Humidity;BMP_temperature;BMP_pressure;BME280_temperature;BME280_humidity;BME280_pressure;Samples;Min_cycle;Max_cycle;Signal;HPM_P1;HPM_P2
2021/04/16 00:01:58;;;;;;;2.63;1.37;;;5.50;57.80;;;;;;5096720;28;20444;-78
2021/04/16 00:04:24;;;;;;;3.20;1.50;;;5.50;58.00;;;;;;5096209;28;20116;-78
2021/04/16 00:06:49;;;;;;;3.10;1.40;;;5.50;58.20;;;;;;5096513;28;20027;-79
2021/04/16 00:09:15;;;;;;;3.73;1.40;;;5.40;58.10;;;;;;5114838;28;20406;-79
2021/04/16 00:11:42;;;;;;;6.90;1.40;;;5.40;58.40;;;;;;5114091;28;20471;-79
2021/04/16 00:14:10;;;;;;;1.90;1.03;;;5.40;58.40;;;;;;5114138;28;20020;-79
2021/04/16 00:16:35;;;;;;;2.73;1.00;;;5.40;58.80;;;;;;5095749;28;20376;-79
2021/04/16 00:19:01;;;;;;;2.27;1.47;;;5.40;58.90;;;;;;5114392;28;20020;-78
2021/04/16 00:21:28;;;;;;;2.60;1.23;;;5.50;58.90;;;;;;5113489;28;20391;-77
2021/04/16 00:23:53;;;;;;;4.30;1.13;;;5.50;58.80;;;;;;5095539;28;20031;-78
2021/04/16 00:26:19;;;;;;;2.73;1.37;;;5.40;59.00;;;;;;5113265;28;20023;-78
2021/04/16 00:28:45;;;;;;;2.10;1.33;;;5.40;59.20;;;;;;5095289;28;20027;-78
2021/04/16 00:31:20;;;;;;;2.70;1.20;;;5.40;59.30;;;;;;5113843;28;20027;-77
2021/04/16 00:33:46;;;;;;;2.70;1.20;;;5.40;59.00;;;;;;5112752;28;20024;-78
2021/04/16 00:36:13;;;;;;;2.10;1.20;;;5.30;59.00;;;;;;5095438;28;20517;-78
2021/04/16 00:38:39;;;;;;;3.27;1.40;;;5.20;59.30;;;;;;5095237;28;20020;-78
2021/04/16 00:41:07;;;;;;;2.03;1.33;;;5.20;59.50;;;;;;5113498;28;20016;-78
2021/04/16 00:43:35;;;;;;;1.47;0.90;;;5.20;59.80;;;;;;5112973;28;20099;-78
2021/04/16 00:46:13;;;;;;;1.80;1.13;;;5.30;59.50;;;;;;5095632;28;20598;-79
2021/04/16 00:48:50;;;;;;;2.13;1.10;;;5.20;59.50;;;;;;5095126;28;20019;-79
2021/04/16 00:51:22;;;;;;;2.60;1.13;;;5.10;59.50;;;;;;5095694;28;20043;-79
2021/04/16 00:53:48;;;;;;;;;;;5.00;59.80;;;;;;5113327;28;20027;-78
2021/04/16 00:56:14;;;;;;;2.10;0.73;;;5.00;60.50;;;;;;5095579;28;19927;-78
2021/04/16 00:58:40;;;;;;;3.93;1.20;;;5.00;59.90;;;;;;5095023;28;20019;-78
2021/04/16 01:01:06;;;;;;;2.03;1.00;;;5.00;59.40;;;;;;5095092;28;20026;-78
2021/04/16 01:03:32;;;;;;;2.87;1.20;;;5.00;59.70;;;;;;5094778;28;20023;-78
2021/04/16 01:06:01;;;;;;;3.27;1.40;;;5.00;59.60;;;;;;5094974;28;20030;-78
2021/04/16 01:08:27;;;;;;;1.60;0.97;;;5.10;59.50;;;;;;5112715;28;20117;-78
2021/04/16 01:10:53;;;;;;;2.13;1.00;;;5.10;59.60;;;;;;5095307;28;20064;-78
2021/04/16 01:13:22;;;;;;;3.30;1.00;;;5.10;59.80;;;;;;5113067;28;20093;-78
2021/04/16 01:16:00;;;;;;;2.97;1.07;;;5.10;59.60;;;;;;5094900;28;20028;-78
2021/04/16 01:18:36;;;;;;;1.60;1.03;;;5.10;60.10;;;;;;5094694;28;20020;-78
2021/04/16 01:21:06;;;;;;;2.33;0.77;;;5.10;59.90;;;;;;5113331;28;20027;-79
2021/04/16 01:23:37;;;;;;;2.20;0.90;;;5.10;59.80;;;;;;5094971;28;20031;-78
2021/04/16 01:26:06;;;;;;;1.10;0.63;;;5.20;59.70;;;;;;5082767;28;20144;-78
2021/04/16 01:28:32;;;;;;;2.30;1.10;;;5.20;59.50;;;;;;5074545;28;20031;-78
2021/04/16 01:31:09;;;;;;;1.30;0.90;;;5.20;58.60;;;;;;5093287;28;20020;-79
2021/04/16 01:33:36;;;;;;;1.43;0.80;;;5.20;59.20;;;;;;5074620;28;20028;-78
2021/04/16 01:36:05;;;;;;;1.70;0.90;;;5.20;59.00;;;;;;5093375;28;20062;-78
2021/04/16 01:38:33;;;;;;;3.57;0.97;;;5.30;59.10;;;;;;5077761;28;20027;-78
2021/04/16 01:40:59;;;;;;;1.93;0.90;;;5.30;59.40;;;;;;5096726;28;20027;-78
2021/04/16 01:43:33;;;;;;;1.27;0.90;;;5.10;59.60;;;;;;5078755;28;20024;-78
2021/04/16 01:46:10;;;;;;;3.03;1.10;;;5.00;60.20;;;;;;5078566;28;20024;-78
2021/04/16 01:48:38;;;;;;;1.73;0.90;;;4.90;59.70;;;;;;5078420;28;20116;-78
2021/04/16 01:51:07;;;;;;;1.63;0.80;;;4.90;60.50;;;;;;5096288;28;20491;-78
2021/04/16 01:53:32;;;;;;;4.67;1.20;;;4.90;60.00;;;;;;5078012;28;20031;-78
2021/04/16 01:55:58;;;;;;;1.83;1.00;;;4.90;60.90;;;;;;5108272;28;20027;-78
2021/04/16 01:58:24;;;;;;;2.90;1.20;;;5.00;60.40;;;;;;5098694;28;20345;-79
2021/04/16 02:00:51;;;;;;;2.63;0.70;;;4.90;60.50;;;;;;5098423;28;20049;-79
2021/04/16 02:03:17;;;;;;;1.83;0.90;;;4.80;61.10;;;;;;5098704;28;20027;-79
2021/04/16 02:05:43;;;;;;;2.37;1.00;;;4.80;61.40;;;;;;5098268;28;20016;-79
2021/04/16 02:08:09;;;;;;;2.80;0.97;;;4.70;61.60;;;;;;5098372;28;20064;-78
2021/04/16 02:10:35;;;;;;;2.03;0.90;;;4.80;62.00;;;;;;5116138;28;20069;-78
2021/04/16 02:13:00;;;;;;;1.80;1.10;;;4.80;61.20;;;;;;5098367;28;20049;-78
2021/04/16 02:15:26;;;;;;;1.73;1.07;;;4.60;61.60;;;;;;5098503;28;20028;-79
2021/04/16 02:17:52;;;;;;;1.70;1.00;;;4.60;61.70;;;;;;5098208;28;20028;-79
2021/04/16 02:20:20;;;;;;;1.47;0.73;;;4.60;62.10;;;;;;5116189;28;20020;-78
2021/04/16 02:22:46;;;;;;;2.70;1.13;;;4.50;61.90;;;;;;5097806;28;20050;-79
2021/04/16 02:25:12;;;;;;;2.37;1.10;;;4.50;62.30;;;;;;5098424;28;20449;-79
2021/04/16 02:27:38;;;;;;;1.90;0.83;;;4.50;62.00;;;;;;5097965;28;20023;-78
2021/04/16 02:30:14;;;;;;;2.17;1.10;;;4.50;62.00;;;;;;5098449;28;20019;-79
2021/04/16 02:32:40;;;;;;;1.97;0.77;;;4.40;62.00;;;;;;5116189;28;20027;-79
2021/04/16 02:35:07;;;;;;;3.07;1.03;;;4.40;62.60;;;;;;5116101;28;20479;-79
2021/04/16 02:37:33;;;;;;;1.27;0.80;;;4.40;62.40;;;;;;5115723;28;20024;-78
2021/04/16 02:39:59;;;;;;;2.33;1.23;;;4.40;62.50;;;;;;5097818;28;20081;-78
2021/04/16 02:42:25;;;;;;;2.13;0.90;;;4.30;63.10;;;;;;5097946;28;20147;-79
2021/04/16 02:44:50;;;;;;;2.53;1.10;;;4.30;62.90;;;;;;5115242;28;20468;-79
2021/04/16 02:47:16;;;;;;;1.77;1.00;;;4.30;63.40;;;;;;5115425;28;20032;-78
2021/04/16 02:49:42;;;;;;;1.93;1.10;;;4.20;63.60;;;;;;5115282;28;20391;-78
2021/04/16 02:52:08;;;;;;;1.73;1.20;;;4.10;64.10;;;;;;5115901;28;20086;-78
2021/04/16 02:54:34;;;;;;;3.07;1.23;;;4.10;64.10;;;;;;5097085;28;20047;-79
2021/04/16 02:56:59;;;;;;;2.57;1.60;;;4.10;64.20;;;;;;5115862;28;20023;-78
2021/04/16 02:59:27;;;;;;;2.60;1.10;;;4.10;64.40;;;;;;5097527;28;20118;-78
2021/04/16 03:01:52;;;;;;;3.93;1.40;;;4.10;64.60;;;;;;5114953;28;20062;-78
2021/04/16 03:04:18;;;;;;;1.63;1.13;;;4.00;64.70;;;;;;5097384;28;20047;-78
2021/04/16 03:06:44;;;;;;;2.77;1.20;;;4.00;64.70;;;;;;5096914;28;20023;-78
2021/04/16 03:09:10;;;;;;;3.20;1.20;;;3.90;64.80;;;;;;5097464;28;20052;-78
2021/04/16 03:11:36;;;;;;;1.83;1.00;;;3.90;65.20;;;;;;5096998;28;20020;-78
2021/04/16 03:14:02;;;;;;;2.37;1.20;;;3.90;65.40;;;;;;5097186;28;20030;-78
2021/04/16 03:16:29;;;;;;;2.57;1.30;;;3.90;65.00;;;;;;5115388;28;20062;-79
2021/04/16 03:18:57;;;;;;;3.70;1.13;;;3.90;65.50;;;;;;5096973;28;20452;-79
2021/04/16 03:21:24;;;;;;;2.40;1.27;;;3.90;65.40;;;;;;5097205;28;20020;-79
2021/04/16 03:23:50;;;;;;;3.97;1.70;;;3.90;65.70;;;;;;5096037;28;20219;-79
2021/04/16 03:26:16;;;;;;;3.53;1.33;;;3.90;65.90;;;;;;5096708;28;20027;-78
2021/04/16 03:28:42;;;;;;;2.97;1.60;;;4.00;65.50;;;;;;5096445;28;20073;-78
2021/04/16 03:31:08;;;;;;;3.17;1.43;;;4.00;65.40;;;;;;5096770;28;20015;-79
2021/04/16 03:33:33;;;;;;;3.10;1.50;;;3.90;65.40;;;;;;5096174;28;20508;-78
2021/04/16 03:35:59;;;;;;;4.53;1.57;;;4.00;65.30;;;;;;5097646;28;20027;-79
2021/04/16 03:38:25;;;;;;;3.77;1.20;;;4.00;65.60;;;;;;5097144;28;20028;-78
2021/04/16 03:40:51;;;;;;;4.70;1.40;;;3.90;66.40;;;;;;5114411;28;20468;-78
2021/04/16 03:43:17;;;;;;;2.27;1.27;;;3.90;65.70;;;;;;5096784;28;20019;-78
2021/04/16 03:45:42;;;;;;;2.50;1.37;;;3.80;65.60;;;;;;5096109;28;20019;-78
2021/04/16 03:48:08;;;;;;;4.63;1.60;;;3.80;65.50;;;;;;5114767;28;20020;-78
2021/04/16 03:50:35;;;;;;;1.87;1.10;;;3.70;66.00;;;;;;5096217;28;20041;-79
2021/04/16 03:53:01;;;;;;;2.17;1.23;;;3.80;66.00;;;;;;5096358;28;20030;-78
2021/04/16 03:55:30;;;;;;;2.47;1.27;;;3.70;66.10;;;;;;5076325;28;20071;-78
2021/04/16 03:57:55;;;;;;;2.97;1.70;;;3.70;66.40;;;;;;5093393;28;20584;-77
2021/04/16 04:00:26;;;;;;;1.67;1.20;;;3.60;66.60;;;;;;5093047;28;20031;-78
2021/04/16 04:02:52;;;;;;;2.23;1.27;;;3.60;66.80;;;;;;5092925;28;20053;-77
2021/04/16 04:05:19;;;;;;;3.13;1.50;;;3.50;66.90;;;;;;5093820;28;20048;-78
2021/04/16 04:07:45;;;;;;;2.00;1.17;;;3.50;66.70;;;;;;5093663;28;20036;-78
2021/04/16 04:10:12;;;;;;;4.47;1.13;;;3.50;67.00;;;;;;5093942;28;20091;-78
2021/04/16 04:12:37;;;;;;;1.83;1.07;;;3.40;67.10;;;;;;5075237;28;20114;-78
2021/04/16 04:15:05;;;;;;;3.63;1.50;;;3.40;67.20;;;;;;5094042;28;20125;-78
2021/04/16 04:17:34;;;;;;;4.67;1.60;;;3.40;67.20;;;;;;5075500;28;20077;-78
2021/04/16 04:20:00;;;;;;;4.83;1.90;;;3.40;67.30;;;;;;5075721;28;20034;-78
2021/04/16 04:22:26;;;;;;;2.30;1.20;;;3.60;67.10;;;;;;5075440;28;20024;-78
2021/04/16 04:24:52;;;;;;;2.80;1.50;;;3.60;66.40;;;;;;5077498;28;20309;-78
2021/04/16 04:27:18;;;;;;;2.20;1.40;;;3.60;66.50;;;;;;5113881;28;20092;-78
2021/04/16 04:29:44;;;;;;;3.40;1.47;;;3.60;66.70;;;;;;5113339;28;20026;-78
2021/04/16 04:32:10;;;;;;;3.23;1.30;;;3.60;66.30;;;;;;5095394;28;20062;-78
2021/04/16 04:34:36;;;;;;;4.53;1.80;;;3.50;66.50;;;;;;5113243;28;20073;-78
2021/04/16 04:37:03;;;;;;;2.07;1.13;;;3.60;66.80;;;;;;5095789;28;20096;-77
2021/04/16 04:39:31;;;;;;;1.70;1.30;;;3.50;66.70;;;;;;5095216;28;20057;-77
2021/04/16 04:41:57;;;;;;;3.03;1.60;;;3.50;66.70;;;;;;5108874;28;20111;-77
2021/04/16 04:44:23;;;;;;;2.20;1.43;;;3.50;66.80;;;;;;5100568;28;20127;-78
2021/04/16 04:46:49;;;;;;;3.57;1.80;;;3.50;67.00;;;;;;5112462;28;20030;-79
2021/04/16 04:49:16;;;;;;;2.90;1.50;;;3.50;67.00;;;;;;5110701;28;20456;-78
2021/04/16 04:51:42;;;;;;;2.67;1.77;;;3.50;67.40;;;;;;5096186;28;20074;-78
2021/04/16 04:54:09;;;;;;;2.87;1.60;;;3.50;68.10;;;;;;5087970;28;20044;-77
2021/04/16 04:56:36;;;;;;;4.47;1.50;;;3.60;67.00;;;;;;5092386;28;20058;-78
2021/04/16 04:59:03;;;;;;;4.23;1.60;;;3.70;67.00;;;;;;5074908;28;20024;-78
2021/04/16 05:01:29;;;;;;;3.13;1.57;;;3.70;66.90;;;;;;5092710;28;20099;-78
2021/04/16 05:03:54;;;;;;;3.03;1.53;;;3.80;66.80;;;;;;5091690;28;20111;-77
2021/04/16 05:06:20;;;;;;;3.57;1.40;;;3.80;66.90;;;;;;5092782;28;20475;-78
2021/04/16 05:08:46;;;;;;;3.30;1.53;;;3.80;67.10;;;;;;5074282;28;20020;-76
2021/04/16 05:11:11;;;;;;;2.70;1.57;;;3.80;68.00;;;;;;5075153;28;20027;-77
2021/04/16 05:13:38;;;;;;;5.83;1.70;;;3.90;67.80;;;;;;5096392;28;20030;-77
2021/04/16 05:16:04;;;;;;;3.43;1.60;;;3.90;67.90;;;;;;5099360;28;20054;-78
2021/04/16 05:18:29;;;;;;;2.10;1.43;;;3.80;66.90;;;;;;5099030;28;20086;-78
2021/04/16 05:20:55;;;;;;;2.90;1.43;;;3.70;67.70;;;;;;5116451;28;20432;-78
2021/04/16 05:23:21;;;;;;;3.43;1.50;;;3.80;67.60;;;;;;5098553;28;20026;-78
2021/04/16 05:25:47;;;;;;;2.23;1.33;;;3.80;67.20;;;;;;5116598;28;20016;-77
2021/04/16 05:28:12;;;;;;;3.27;1.57;;;3.70;67.20;;;;;;5098819;28;20020;-78
2021/04/16 05:30:38;;;;;;;3.40;1.53;;;3.80;67.00;;;;;;5116306;28;20022;-78
2021/04/16 05:33:04;;;;;;;2.40;1.30;;;3.80;67.20;;;;;;5098837;28;20019;-79
2021/04/16 05:35:31;;;;;;;2.03;1.30;;;3.80;66.80;;;;;;5117459;28;20081;-79
2021/04/16 05:37:57;;;;;;;4.00;1.50;;;3.80;66.80;;;;;;5116384;28;20047;-79
2021/04/16 05:40:25;;;;;;;2.10;1.37;;;3.80;66.90;;;;;;5098655;28;20020;-79
2021/04/16 05:42:52;;;;;;;2.27;1.60;;;3.80;66.30;;;;;;5110137;27;20027;-79
2021/04/16 05:45:18;;;;;;;2.87;1.40;;;3.90;66.80;;;;;;5119578;27;20038;-79
2021/04/16 05:47:44;;;;;;;4.10;1.83;;;3.90;66.70;;;;;;5113052;27;20026;-80
2021/04/16 05:50:10;;;;;;;2.80;1.57;;;4.00;67.00;;;;;;5078302;28;20024;-79
2021/04/16 05:52:36;;;;;;;4.07;1.80;;;4.00;67.10;;;;;;5077988;28;20178;-79
2021/04/16 05:55:03;;;;;;;4.20;2.10;;;4.10;66.70;;;;;;5081969;28;20046;-78
2021/04/16 05:57:28;;;;;;;5.07;2.50;;;4.20;66.30;;;;;;5099018;28;20026;-78
2021/04/16 05:59:54;;;;;;;2.87;1.90;;;4.20;66.50;;;;;;5097782;28;20024;-79
2021/04/16 06:02:33;;;;;;;3.17;1.80;;;4.30;66.80;;;;;;5098569;28;20107;-79
2021/04/16 06:05:00;;;;;;;3.77;2.07;;;4.30;67.30;;;;;;5098151;28;20118;-79
2021/04/16 06:07:26;;;;;;;4.53;1.90;;;4.20;67.20;;;;;;5095257;28;20114;-78
2021/04/16 06:09:53;;;;;;;2.53;1.80;;;4.20;67.70;;;;;;5096444;28;20402;-79
2021/04/16 06:12:20;;;;;;;3.90;1.90;;;4.20;67.80;;;;;;5105575;27;20042;-79
2021/04/16 06:14:46;;;;;;;4.60;2.43;;;4.20;67.30;;;;;;5118630;27;20042;-79
2021/04/16 06:17:14;;;;;;;3.73;2.00;;;4.30;67.30;;;;;;5137100;27;20115;-79
2021/04/16 06:19:41;;;;;;;9.87;5.20;;;4.30;67.00;;;;;;5136112;27;20031;-78
2021/04/16 06:22:07;;;;;;;5.53;2.20;;;4.40;66.70;;;;;;5118516;27;20467;-79
2021/04/16 06:24:33;;;;;;;6.27;2.30;;;4.40;66.90;;;;;;5136627;27;20041;-79
2021/04/16 06:26:59;;;;;;;4.17;1.90;;;4.50;67.00;;;;;;5115557;28;20077;-78
2021/04/16 06:29:24;;;;;;;4.37;2.10;;;4.60;67.50;;;;;;5116202;28;20023;-79
2021/04/16 06:31:52;;;;;;;6.23;2.50;;;4.60;66.90;;;;;;5097689;28;20019;-79
2021/04/16 06:34:18;;;;;;;4.87;2.17;;;4.70;66.50;;;;;;5097657;28;20439;-78
2021/04/16 06:36:44;;;;;;;3.30;1.73;;;4.70;66.50;;;;;;5115247;28;20099;-78
2021/04/16 06:39:10;;;;;;;4.13;1.87;;;4.80;65.70;;;;;;5097113;28;20452;-78
2021/04/16 06:41:38;;;;;;;2.87;1.70;;;4.80;65.90;;;;;;5097533;28;20023;-78
2021/04/16 06:44:13;;;;;;;3.93;2.17;;;4.90;66.20;;;;;;5096906;28;20024;-78
2021/04/16 06:46:44;;;;;;;3.90;2.20;;;5.00;65.80;;;;;;5097364;28;20020;-77
2021/04/16 06:49:20;;;;;;;3.30;1.70;;;4.90;65.80;;;;;;5097383;28;20031;-78
2021/04/16 06:52:06;;;;;;;4.73;2.27;;;4.90;65.70;;;;;;5093478;28;20048;-78
2021/04/16 06:54:51;;;;;;;5.27;2.03;;;5.00;65.90;;;;;;5093994;28;20020;-79
2021/04/16 06:57:44;;;;;;;2.43;1.77;;;5.10;65.90;;;;;;5094936;28;20024;-78
2021/04/16 07:00:13;;;;;;;2.93;1.57;;;5.10;65.90;;;;;;5063495;28;20415;-78
2021/04/16 07:03:18;;;;;;;4.33;1.97;;;5.10;65.70;;;;;;5095041;28;20051;-79
2021/04/16 07:05:52;;;;;;;2.23;1.80;;;5.10;65.30;;;;;;5053254;28;20086;-78
2021/04/16 07:08:32;;;;;;;5.00;1.83;;;5.20;65.40;;;;;;5093843;28;20108;-79
2021/04/16 07:10:59;;;;;;;3.47;1.80;;;5.30;65.60;;;;;;5093678;28;20024;-79
2021/04/16 07:13:37;;;;;;;3.30;2.00;;;5.30;64.70;;;;;;5110679;28;20388;-79
2021/04/16 07:16:03;;;;;;;3.63;2.10;;;5.30;64.60;;;;;;5114815;28;20065;-79
2021/04/16 07:18:42;;;;;;;2.93;2.17;;;5.30;65.10;;;;;;5114648;28;20114;-78
2021/04/16 07:21:09;;;;;;;3.90;2.40;;;5.30;65.90;;;;;;5113911;28;20027;-79
2021/04/16 07:23:51;;;;;;;3.67;2.27;;;5.40;65.70;;;;;;5114307;28;20055;-78
2021/04/16 07:26:48;;;;;;;3.75;2.30;;;5.50;65.80;;;;;;5099625;28;20111;-79
2021/04/16 07:29:40;;;;;;;4.30;2.40;;;5.40;65.70;;;;;;5090168;28;20031;-77
2021/04/16 07:32:31;;;;;;;4.55;2.47;;;5.50;66.20;;;;;;5093486;28;20460;-79
2021/04/16 07:35:22;;;;;;;3.80;2.40;;;5.50;66.50;;;;;;5094432;28;20032;-81
2021/04/16 07:38:07;;;;;;;4.23;2.83;;;5.60;67.20;;;;;;5092944;28;20107;-79
2021/04/16 07:40:40;;;;;;;4.07;2.20;;;5.60;67.00;;;;;;5093402;28;20131;-78
2021/04/16 07:43:07;;;;;;;4.90;2.30;;;5.70;67.30;;;;;;5107316;28;20035;-78
2021/04/16 07:45:46;;;;;;;4.37;2.30;;;5.70;66.50;;;;;;5114460;28;20480;-79
2021/04/16 07:48:19;;;;;;;4.17;2.10;;;5.80;66.00;;;;;;5114532;28;20085;-79
2021/04/16 07:50:51;;;;;;;3.90;2.27;;;5.90;65.60;;;;;;5116076;27;20050;-78
2021/04/16 07:53:52;;;;;;;4.53;2.60;;;5.90;66.10;;;;;;5116990;27;20082;-80
2021/04/16 07:56:20;;;;;;;5.53;2.33;;;5.90;66.10;;;;;;5102454;28;20141;-79
2021/04/16 07:59:05;;;;;;;4.30;2.50;;;5.90;65.20;;;;;;5113340;28;20535;-79
2021/04/16 08:01:37;;;;;;;5.07;2.83;;;6.10;65.70;;;;;;5095276;28;20055;-79
2021/04/16 08:04:23;;;;;;;3.17;2.17;;;6.20;65.50;;;;;;5087194;28;20060;-78
2021/04/16 08:06:53;;;;;;;3.30;2.50;;;6.30;65.10;;;;;;5111497;28;20465;-79
2021/04/16 08:09:25;;;;;;;4.03;2.47;;;6.40;65.30;;;;;;5113229;28;20019;-78
2021/04/16 08:12:15;;;;;;;4.05;2.35;;;6.50;64.40;;;;;;5094734;27;20063;-78
2021/04/16 08:14:43;;;;;;;3.43;2.57;;;6.60;64.00;;;;;;5112591;28;20054;-78
2021/04/16 08:17:29;;;;;;;3.00;2.20;;;6.70;63.50;;;;;;5094945;28;20039;-77
2021/04/16 08:20:28;;;;;;;4.50;2.30;;;6.70;62.50;;;;;;5092776;28;20036;-79
2021/04/16 08:22:54;;;;;;;3.67;2.23;;;6.70;62.60;;;;;;5090022;28;20081;-78
2021/04/16 08:25:36;;;;;;;4.33;2.30;;;6.80;62.10;;;;;;5094506;28;20027;-78
2021/04/16 08:28:14;;;;;;;4.28;2.60;;;6.80;62.10;;;;;;5090774;28;20483;-78
2021/04/16 08:31:02;;;;;;;3.73;2.33;;;7.00;64.40;;;;;;5094991;28;20468;-78
2021/04/16 08:33:40;;;;;;;5.10;2.30;;;7.10;63.70;;;;;;5110991;28;20074;-79
2021/04/16 08:36:15;;;;;;;3.63;2.27;;;7.20;62.40;;;;;;5110426;28;20030;-80
2021/04/16 08:38:57;;;;;;;4.30;2.30;;;7.10;61.80;;;;;;5112706;28;20446;-79
2021/04/16 08:41:24;;;;;;;4.93;2.60;;;7.10;62.90;;;;;;5094797;28;20012;-78
2021/04/16 08:43:56;;;;;;;5.60;2.67;;;7.30;62.70;;;;;;5096491;28;20111;-78
2021/04/16 08:46:45;;;;;;;5.23;2.80;;;7.30;61.60;;;;;;5094724;28;20032;-79
2021/04/16 08:49:27;;;;;;;4.50;2.40;;;7.20;61.60;;;;;;5107183;28;20032;-80
2021/04/16 08:52:07;;;;;;;5.88;2.45;;;7.10;61.60;;;;;;5092444;28;20152;-82
2021/04/16 08:54:35;;;;;;;5.47;2.70;;;7.10;61.90;;;;;;5095906;28;20028;-78
2021/04/16 08:57:05;;;;;;;3.70;2.23;;;7.20;62.40;;;;;;5113473;28;20111;-80
2021/04/16 08:59:56;;;;;;;3.67;2.50;;;7.10;61.80;;;;;;5094787;28;20020;-77
2021/04/16 09:02:29;;;;;;;5.97;2.37;;;7.20;62.50;;;;;;5113381;28;20016;-77
2021/04/16 09:05:23;;;;;;;4.33;2.70;;;7.10;61.90;;;;;;5112679;28;20028;-77
2021/04/16 09:07:56;;;;;;;3.30;2.50;;;7.20;62.10;;;;;;5103004;28;20464;-80
2021/04/16 09:10:25;;;;;;;3.80;2.43;;;7.10;62.10;;;;;;5094821;28;20024;-78
2021/04/16 09:12:56;;;;;;;3.60;2.43;;;7.20;63.60;;;;;;5106060;28;20368;-77
2021/04/16 09:15:25;;;;;;;4.40;2.38;;;7.30;62.90;;;;;;5115838;28;20019;-78
2021/04/16 09:17:53;;;;;;;3.83;2.40;;;7.40;63.30;;;;;;5102331;28;20043;-77
2021/04/16 09:20:47;;;;;;;3.23;2.40;;;7.40;62.10;;;;;;5112836;28;20024;-78
2021/04/16 09:23:39;;;;;;;3.53;2.87;;;7.40;62.70;;;;;;5074428;28;20032;-77
2021/04/16 09:26:08;;;;;;;2.88;1.92;;;7.40;62.80;;;;;;5076152;28;20012;-78
2021/04/16 09:28:50;;;;;;;4.40;2.33;;;7.50;61.50;;;;;;5094215;28;20020;-77
2021/04/16 09:31:24;;;;;;;3.60;2.20;;;7.60;60.60;;;;;;5112646;28;20023;-78
2021/04/16 09:34:25;;;;;;;5.47;2.70;;;7.70;59.80;;;;;;5112474;28;20020;-78
2021/04/16 09:37:13;;;;;;;3.27;2.00;;;7.90;59.40;;;;;;5028281;28;20014;-78
2021/04/16 09:39:41;;;;;;;4.07;2.30;;;8.00;58.40;;;;;;5084697;28;20377;-78
2021/04/16 09:42:27;;;;;;;3.33;2.13;;;8.10;58.00;;;;;;5094309;28;20114;-78
2021/04/16 09:44:57;;;;;;;4.10;2.17;;;8.30;59.00;;;;;;5087362;28;20032;-78
2021/04/16 09:47:42;;;;;;;3.43;2.70;;;8.50;58.70;;;;;;5094126;28;20024;-77
2021/04/16 09:50:24;;;;;;;4.87;1.80;;;8.70;60.10;;;;;;5107883;28;20028;-78
2021/04/16 09:53:13;;;;;;;4.20;1.75;;;8.80;56.90;;;;;;5111992;28;20043;-77
2021/04/16 09:55:50;;;;;;;3.05;2.00;;;8.80;56.70;;;;;;5109085;28;20035;-79
2021/04/16 09:58:34;;;;;;;2.80;2.08;;;8.90;56.10;;;;;;5112739;28;20481;-78
2021/04/16 10:01:06;;;;;;;3.38;2.20;;;9.00;55.90;;;;;;5091643;28;20046;-79
2021/04/16 10:03:32;;;;;;;2.33;1.85;;;9.20;55.70;;;;;;5098154;28;20024;-79
2021/04/16 10:06:18;;;;;;;2.50;2.03;;;9.20;55.00;;;;;;5110088;28;20027;-79
2021/04/16 10:08:45;;;;;;;2.72;1.83;;;9.20;54.30;;;;;;5094484;28;20027;-79
2021/04/16 10:11:12;;;;;;;4.05;2.15;;;9.30;55.00;;;;;;5097013;28;20460;-79
2021/04/16 10:13:39;;;;;;;4.15;2.20;;;9.40;53.80;;;;;;5096753;28;20024;-78
2021/04/16 10:16:19;;;;;;;2.53;1.80;;;9.40;53.90;;;;;;5097480;28;20110;-78
2021/04/16 10:18:46;;;;;;;2.92;2.03;;;9.50;53.80;;;;;;5115923;28;20028;-79
2021/04/16 10:21:17;;;;;;;3.20;1.90;;;9.60;54.10;;;;;;5096826;28;20026;-79
2021/04/16 10:23:48;;;;;;;3.75;1.67;;;9.60;54.30;;;;;;5098089;28;20027;-78
2021/04/16 10:30:16;;;;;;;2.78;2.05;;;9.50;54.10;;;;;;5113296;28;20077;-82
2021/04/16 12:39:28;;;;;;;2.72;1.48;;;9.80;50.90;;;;;;5113118;28;20095;-78
2021/04/16 12:41:57;;;;;;;2.58;1.95;;;9.60;50.60;;;;;;5095326;28;20504;-79
2021/04/16 12:44:37;;;;;;;1.92;1.60;;;9.60;50.70;;;;;;5094755;28;20032;-78
2021/04/16 12:47:06;;;;;;;2.28;1.67;;;9.50;50.60;;;;;;5112803;28;20020;-78
2021/04/16 12:49:32;;;;;;;4.68;1.75;;;9.50;51.30;;;;;;5113626;28;20483;-78
2021/04/16 12:51:58;;;;;;;2.67;1.63;;;9.50;51.40;;;;;;5095262;28;20035;-79
2021/04/16 12:54:23;;;;;;;3.92;1.35;;;9.40;51.40;;;;;;5095226;28;20468;-78
2021/04/16 12:56:50;;;;;;;1.63;1.17;;;9.40;50.60;;;;;;5096559;28;20022;-78
2021/04/16 12:59:24;;;;;;;2.33;1.17;;;9.30;51.30;;;;;;5094846;28;20020;-79
2021/04/16 13:01:52;;;;;;;4.55;1.15;;;9.20;50.00;;;;;;5083153;28;20058;-79
2021/04/16 13:04:21;;;;;;;3.13;1.30;;;9.20;50.20;;;;;;5093635;28;20028;-78
2021/04/16 13:06:48;;;;;;;1.70;1.10;;;9.20;50.60;;;;;;5075622;28;20020;-79
2021/04/16 13:09:17;;;;;;;1.67;1.00;;;9.20;50.80;;;;;;5074762;28;20028;-79
2021/04/16 13:11:42;;;;;;;3.80;1.00;;;9.20;51.00;;;;;;5078464;28;20024;-79
2021/04/16 13:14:09;;;;;;;2.75;1.52;;;9.10;49.80;;;;;;5113644;28;20035;-79
2021/04/16 13:16:37;;;;;;;2.85;1.45;;;9.20;50.00;;;;;;5095719;28;20030;-78
2021/04/16 13:19:14;;;;;;;1.50;1.00;;;9.30;50.00;;;;;;5084235;28;20028;-79
2021/04/16 13:21:41;;;;;;;1.60;1.08;;;9.40;50.20;;;;;;5059974;28;20025;-79
2021/04/16 13:24:09;;;;;;;3.03;1.00;;;9.40;49.70;;;;;;5074986;28;20476;-78
2021/04/16 13:26:35;;;;;;;1.88;0.85;;;9.40;49.80;;;;;;5093999;28;20016;-79
2021/04/16 13:29:01;;;;;;;1.38;0.90;;;9.40;49.10;;;;;;5107835;28;20027;-78
2021/04/16 13:31:34;;;;;;;0.95;0.55;;;9.40;49.10;;;;;;5093177;28;20413;-79
2021/04/16 13:34:00;;;;;;;3.00;0.70;;;9.40;48.40;;;;;;5090343;28;20031;-79
2021/04/16 13:36:30;;;;;;;2.03;0.80;;;9.50;49.70;;;;;;5116009;28;20031;-77
2021/04/16 13:38:57;;;;;;;104.75;41.53;;;9.60;49.90;;;;;;5098267;28;20123;-78
2021/04/16 13:41:22;;;;;;;47.83;20.85;;;9.60;49.30;;;;;;5115478;28;20027;-77
2021/04/16 13:43:52;;;;;;;5.63;3.05;;;9.60;48.30;;;;;;5098814;28;20027;-79
2021/04/16 13:46:23;;;;;;;3.42;1.95;;;9.70;48.70;;;;;;5102866;28;20480;-79
2021/04/16 13:48:50;;;;;;;1.73;1.25;;;9.70;48.80;;;;;;5108106;28;20024;-79
2021/04/16 13:51:18;;;;;;;1.85;1.38;;;9.60;48.00;;;;;;5094961;28;20407;-78
2021/04/16 13:53:44;;;;;;;1.80;0.93;;;9.70;48.00;;;;;;5117384;28;20031;-80
2021/04/16 13:56:10;;;;;;;1.80;0.93;;;9.70;48.70;;;;;;5098742;28;20036;-80
2021/04/16 13:58:37;;;;;;;1.17;0.77;;;9.70;47.70;;;;;;5094838;28;20427;-80
2021/04/16 14:01:03;;;;;;;0.95;0.80;;;9.80;48.40;;;;;;5115905;28;20106;-79
2021/04/16 14:03:35;;;;;;;1.35;0.90;;;9.80;49.70;;;;;;5100286;28;20039;-80
2021/04/16 14:06:05;;;;;;;2.60;0.90;;;9.80;49.50;;;;;;5098492;28;20020;-79
2021/04/16 14:08:37;;;;;;;1.88;0.70;;;9.70;48.60;;;;;;5087991;28;20035;-79
2021/04/16 14:11:05;;;;;;;1.00;0.68;;;9.60;49.60;;;;;;5092516;28;20024;-80
2021/04/16 14:13:32;;;;;;;1.50;0.65;;;9.70;50.20;;;;;;5095212;28;20043;-80
2021/04/16 14:16:03;;;;;;;0.80;0.73;;;9.70;50.20;;;;;;5084572;28;20035;-79
2021/04/16 14:18:47;;;;;;;2.00;1.00;;;9.60;49.50;;;;;;5082388;28;20507;-79
2021/04/16 14:21:18;;;;;;;2.95;0.85;;;9.60;48.90;;;;;;5092791;28;20054;-80
2021/04/16 14:23:44;;;;;;;1.35;0.70;;;9.60;48.60;;;;;;5094924;28;20120;-79
2021/04/16 14:26:10;;;;;;;0.60;0.60;;;9.70;49.20;;;;;;5097049;28;20518;-79
2021/04/16 14:28:37;;;;;;;2.00;0.70;;;9.60;48.80;;;;;;5114800;28;20031;-79
2021/04/16 14:31:04;;;;;;;0.60;0.60;;;9.60;49.00;;;;;;5094543;28;20028;-79
2021/04/16 14:33:33;;;;;;;1.73;0.75;;;9.60;50.10;;;;;;5113181;28;20059;-79
2021/04/16 14:36:00;;;;;;;2.25;0.68;;;9.50;50.10;;;;;;5098333;28;20101;-79
2021/04/16 14:38:28;;;;;;;0.82;0.70;;;9.60;49.40;;;;;;5091560;28;20020;-80
2021/04/16 14:40:55;;;;;;;0.70;0.60;;;9.50;49.80;;;;;;5088283;28;20461;-79
2021/04/16 14:43:22;;;;;;;1.27;0.70;;;9.40;49.90;;;;;;5096650;28;20063;-79
2021/04/16 14:45:52;;;;;;;0.70;0.70;;;9.30;50.00;;;;;;5097400;28;20031;-79
2021/04/16 14:48:20;;;;;;;17.75;8.73;;;9.30;50.00;;;;;;5109783;28;20051;-79
2021/04/16 14:50:45;;;;;;;4.00;1.90;;;9.30;50.40;;;;;;5097873;28;20039;-78
2021/04/16 14:53:20;;;;;;;0.98;0.88;;;9.30;50.70;;;;;;5096828;28;20369;-79
2021/04/16 14:55:46;;;;;;;1.70;0.90;;;9.30;49.80;;;;;;5116404;28;20052;-85
2021/04/16 14:58:16;;;;;;;2.70;1.00;;;9.30;50.80;;;;;;5114999;28;20119;-82
2021/04/16 15:00:42;;;;;;;2.65;1.40;;;9.20;50.90;;;;;;5097825;28;20032;-80
2021/04/16 15:03:08;;;;;;;4.35;1.17;;;9.20;50.30;;;;;;5096800;28;20027;-81
2021/04/16 15:05:34;;;;;;;1.75;0.90;;;9.20;51.00;;;;;;5094359;28;20024;-77
2021/04/16 15:08:10;;;;;;;2.47;1.55;;;9.20;50.30;;;;;;5086211;28;20034;-78
2021/04/16 15:11:03;;;;;;;1.33;0.70;;;9.20;50.90;;;;;;5086622;28;20543;-76
2021/04/16 15:13:32;;;;;;;1.17;0.70;;;9.20;51.70;;;;;;5094644;28;20044;-76
2021/04/16 15:16:02;;;;;;;1.48;1.02;;;9.20;51.70;;;;;;5091382;28;20026;-75
2021/04/16 15:18:30;;;;;;;1.52;0.70;;;9.10;51.80;;;;;;5104539;28;20032;-75
2021/04/16 15:20:59;;;;;;;1.58;0.50;;;9.10;52.20;;;;;;5087946;28;20353;-74
2021/04/16 15:23:26;;;;;;;1.05;0.68;;;9.10;51.80;;;;;;5098274;28;20031;-75
2021/04/16 15:25:56;;;;;;;0.90;0.68;;;9.10;51.90;;;;;;5114104;28;20046;-75